createdAt,value
2019-01-06T00:01:36.812Z,3.65
2019-01-06T00:06:00.026Z,3.67
2019-01-06T00:10:23.259Z,3.71
2019-01-06T00:14:46.471Z,3.71
2019-01-06T00:23:34.969Z,3.70
2019-01-06T00:27:58.522Z,3.67
2019-01-06T00:32:18.317Z,3.63
2019-01-06T00:36:41.509Z,3.59
2019-01-06T00:41:04.738Z,3.59
2019-01-06T00:45:27.926Z,3.58
2019-01-06T00:49:51.117Z,3.58
2019-01-06T00:54:14.358Z,3.61
2019-01-06T00:58:37.581Z,3.58
2019-01-06T01:02:57.004Z,3.55
2019-01-06T01:11:43.949Z,3.61
2019-01-06T01:16:07.149Z,3.61
2019-01-06T01:20:30.393Z,3.57
2019-01-06T01:24:54.681Z,3.56
2019-01-06T01:29:17.954Z,3.55
2019-01-06T01:33:44.420Z,3.58
2019-01-06T01:38:07.646Z,3.60
2019-01-06T01:42:30.849Z,3.64
2019-01-06T01:46:54.035Z,3.62
2019-01-06T01:51:17.215Z,3.67
2019-01-06T01:55:40.373Z,3.67
2019-01-06T02:00:03.564Z,3.67
2019-01-06T02:04:26.805Z,3.70
2019-01-06T02:08:50.009Z,3.75
2019-01-06T02:13:04.998Z,3.81
2019-01-06T02:17:28.228Z,3.86
2019-01-06T02:21:51.421Z,3.88
2019-01-06T02:26:16.269Z,3.91
2019-01-06T02:30:39.538Z,3.89
2019-01-06T02:35:02.745Z,3.93
2019-01-06T02:39:26.206Z,3.91
2019-01-06T02:43:49.431Z,3.93
2019-01-06T02:52:53.210Z,3.89
2019-01-06T02:57:16.358Z,3.87
2019-01-06T03:01:39.882Z,3.86
2019-01-06T03:06:03.154Z,3.85
2019-01-06T03:10:26.458Z,3.84
2019-01-06T03:14:49.669Z,3.78
2019-01-06T03:19:12.914Z,3.75
2019-01-06T03:23:36.081Z,3.73
2019-01-06T03:27:54.105Z,3.69
2019-01-06T03:32:18.765Z,3.68
2019-01-06T03:41:09.141Z,3.58
2019-01-06T03:45:32.365Z,3.54
2019-01-06T03:49:55.594Z,3.46
2019-01-06T03:54:18.873Z,3.38
2019-01-06T03:58:33.881Z,3.34
2019-01-06T04:02:57.098Z,3.31
2019-01-06T04:07:20.305Z,3.31
2019-01-06T04:16:24.427Z,3.32
2019-01-06T04:20:47.590Z,3.32
2019-01-06T04:25:03.379Z,3.31
2019-01-06T04:29:22.024Z,3.37
2019-01-06T04:33:35.521Z,3.36
2019-01-06T04:37:58.775Z,3.36
2019-01-06T04:42:22.038Z,3.36
2019-01-06T04:46:45.228Z,3.38
2019-01-06T04:51:08.410Z,3.38
2019-01-06T04:55:36.705Z,3.32
2019-01-06T04:59:59.864Z,3.30
2019-01-06T05:04:23.036Z,3.27
2019-01-06T05:08:46.216Z,3.24
2019-01-06T05:13:09.420Z,3.24
2019-01-06T05:17:32.654Z,3.24
2019-01-06T05:21:55.790Z,3.25
2019-01-06T05:26:18.997Z,3.27
2019-01-06T05:30:42.152Z,3.26
2019-01-06T05:35:05.392Z,3.27
2019-01-06T05:39:28.565Z,3.30
2019-01-06T05:43:51.757Z,3.26
2019-01-06T05:48:05.886Z,3.21
2019-01-06T05:52:29.099Z,3.22
2019-01-06T05:56:52.356Z,3.17
2019-01-06T06:01:15.557Z,3.15
2019-01-06T06:05:38.965Z,3.09
2019-01-06T06:10:02.237Z,3.06
2019-01-06T06:14:25.475Z,3.05
2019-01-06T06:18:43.222Z,3.04
2019-01-06T06:23:06.431Z,2.98
2019-01-06T06:27:29.647Z,3.00
2019-01-06T06:31:52.846Z,2.97
2019-01-06T06:36:16.015Z,2.93
2019-01-06T06:40:41.310Z,2.90
2019-01-06T06:45:04.497Z,2.86
2019-01-06T06:49:27.674Z,2.80
2019-01-06T06:53:50.846Z,2.83
2019-01-06T06:58:33.165Z,2.79
2019-01-06T07:03:18.274Z,2.80
2019-01-06T07:07:41.508Z,2.77
2019-01-06T07:11:56.119Z,2.77
2019-01-06T07:16:19.286Z,2.70
2019-01-06T07:20:42.481Z,2.67
2019-01-06T07:25:05.928Z,2.67
2019-01-06T07:29:29.150Z,2.65
2019-01-06T07:33:52.356Z,2.67
2019-01-06T07:38:15.560Z,2.66
2019-01-06T07:42:38.742Z,2.66
2019-01-06T07:51:29.483Z,2.69
2019-01-06T07:55:52.677Z,2.77
2019-01-06T08:00:15.843Z,2.80
2019-01-06T08:04:54.202Z,2.79
2019-01-06T08:09:17.379Z,2.78
2019-01-06T08:13:40.580Z,2.81
2019-01-06T08:18:03.799Z,2.84
2019-01-06T08:26:55.545Z,2.88
2019-01-06T08:31:18.694Z,2.88
2019-01-06T08:35:41.929Z,2.90
2019-01-06T08:40:05.100Z,2.89
2019-01-06T08:44:28.303Z,2.89
2019-01-06T08:48:51.536Z,2.88
2019-01-06T08:53:14.674Z,2.89
2019-01-06T08:57:40.055Z,2.92
2019-01-06T09:02:03.211Z,2.95
2019-01-06T09:06:26.408Z,3.01
2019-01-06T09:10:49.663Z,3.01
2019-01-06T09:19:39.725Z,3.04
2019-01-06T09:24:02.911Z,3.01
2019-01-06T09:28:26.029Z,3.03
2019-01-06T09:32:49.220Z,3.04
2019-01-06T09:37:12.412Z,3.04
2019-01-06T09:41:37.218Z,3.04
2019-01-06T09:46:00.348Z,3.03
2019-01-06T09:50:15.242Z,3.04
2019-01-06T09:54:38.444Z,3.04
2019-01-06T09:59:03.993Z,3.09
2019-01-06T10:03:28.361Z,3.12
2019-01-06T10:07:51.520Z,3.13
2019-01-06T10:12:14.967Z,3.13
2019-01-06T10:16:38.164Z,3.14
2019-01-06T10:21:01.305Z,3.18
2019-01-06T10:25:24.508Z,3.24
2019-01-06T10:34:28.307Z,3.35
2019-01-06T10:38:51.689Z,3.39
2019-01-06T10:43:14.925Z,3.46
2019-01-06T10:47:38.178Z,3.50
2019-01-06T10:52:01.324Z,3.49
2019-01-06T10:56:24.545Z,3.50
2019-01-06T11:00:47.750Z,3.47
2019-01-06T11:05:10.916Z,3.45
2019-01-06T11:09:34.103Z,3.48
2019-01-06T11:18:24.661Z,3.52
2019-01-06T11:22:47.822Z,3.51
2019-01-06T11:27:10.996Z,3.44
2019-01-06T11:31:34.186Z,3.48
2019-01-06T11:35:47.150Z,3.47
2019-01-06T11:40:04.658Z,3.38
2019-01-06T11:44:27.882Z,3.35
2019-01-06T11:48:51.156Z,3.30
2019-01-06T11:53:14.335Z,3.31
2019-01-06T11:57:37.510Z,3.29
2019-01-06T12:06:27.689Z,3.24
2019-01-06T12:10:50.868Z,3.23
2019-01-06T12:15:14.055Z,3.24
2019-01-06T12:19:37.248Z,3.26
2019-01-06T12:24:00.466Z,3.28
2019-01-06T12:28:23.612Z,3.26
2019-01-06T12:32:46.838Z,3.24
2019-01-06T12:37:09.988Z,3.22
2019-01-06T12:41:33.240Z,3.21
2019-01-06T12:50:26.138Z,3.19
2019-01-06T12:54:49.748Z,3.22
2019-01-06T12:59:12.939Z,3.19
2019-01-06T13:03:36.116Z,3.22
2019-01-06T13:07:59.566Z,3.24
2019-01-06T13:12:22.739Z,3.21
2019-01-06T13:16:45.940Z,3.19
2019-01-06T13:21:11.265Z,3.17
2019-01-06T13:25:34.401Z,3.15
2019-01-06T13:29:57.581Z,3.11
2019-01-06T13:34:20.822Z,3.09
2019-01-06T13:43:09.288Z,3.08
2019-01-06T13:47:22.903Z,3.05
2019-01-06T13:56:25.761Z,3.01
2019-01-06T14:05:15.809Z,3.00
2019-01-06T14:09:39.040Z,2.96
2019-01-06T14:14:02.205Z,2.95
2019-01-06T14:18:25.475Z,2.94
2019-01-06T14:22:48.677Z,2.98
2019-01-06T14:27:11.871Z,2.99
2019-01-06T14:31:37.351Z,2.96
2019-01-06T14:36:00.487Z,2.93
2019-01-06T14:40:23.863Z,2.94
2019-01-06T14:44:47.034Z,2.95
2019-01-06T14:49:11.338Z,2.95
2019-01-06T14:53:36.789Z,2.92
2019-01-06T15:02:29.233Z,2.86
2019-01-06T15:06:52.405Z,2.85
2019-01-06T15:11:18.084Z,2.85
2019-01-06T15:15:43.013Z,2.79
2019-01-06T15:20:06.255Z,2.80
2019-01-06T15:24:29.444Z,2.81
2019-01-06T15:28:53.394Z,2.81
2019-01-06T15:33:16.638Z,2.77
2019-01-06T15:37:39.881Z,2.76
2019-01-06T15:42:04.975Z,2.77
2019-01-06T15:46:28.103Z,2.72
2019-01-06T15:50:51.276Z,2.71
2019-01-06T15:55:14.485Z,2.69
2019-01-06T15:59:37.764Z,2.70
2019-01-06T16:04:01.101Z,2.71
2019-01-06T16:08:24.339Z,2.70
2019-01-06T16:12:47.555Z,2.65
2019-01-06T16:17:10.778Z,2.62
2019-01-06T16:21:34.031Z,2.63
2019-01-06T16:25:57.268Z,2.63
2019-01-06T16:30:20.426Z,2.63
2019-01-06T16:34:43.602Z,2.63
2019-01-06T16:39:06.811Z,2.59
2019-01-06T16:43:30.709Z,2.57
2019-01-06T16:47:53.900Z,2.58
2019-01-06T16:52:17.035Z,2.57
2019-01-06T16:56:40.257Z,2.56
2019-01-06T17:01:03.520Z,2.53
2019-01-06T17:05:26.762Z,2.53
2019-01-06T17:09:50.580Z,2.48
2019-01-06T17:14:13.815Z,2.44
2019-01-06T17:18:37.099Z,2.46
2019-01-06T17:23:00.307Z,2.43
2019-01-06T17:27:23.603Z,2.44
2019-01-06T17:31:46.822Z,2.41
2019-01-06T17:36:09.968Z,2.39
2019-01-06T17:40:25.942Z,2.38
2019-01-06T17:44:49.349Z,2.41
2019-01-06T17:49:13.235Z,2.39
2019-01-06T17:53:36.386Z,2.37
2019-01-06T18:02:39.244Z,2.37
2019-01-06T18:07:02.372Z,2.33
2019-01-06T18:11:25.631Z,2.32
2019-01-06T18:15:48.832Z,2.31
2019-01-06T18:20:14.277Z,2.27
2019-01-06T18:24:37.461Z,2.23
2019-01-06T18:29:00.674Z,2.20
2019-01-06T18:33:23.852Z,2.17
2019-01-06T18:37:47.008Z,2.18
2019-01-06T18:42:10.386Z,2.15
2019-01-06T18:46:33.553Z,2.13
2019-01-06T18:50:56.807Z,2.14
2019-01-06T19:00:00.619Z,2.09
2019-01-06T19:04:24.124Z,2.10
2019-01-06T19:08:37.459Z,2.08
2019-01-06T19:13:02.681Z,2.10
2019-01-06T19:17:25.613Z,2.12
2019-01-06T19:21:48.883Z,2.11
2019-01-06T19:26:12.072Z,2.13
2019-01-06T19:43:56.186Z,2.41
2019-01-06T19:48:19.431Z,2.35
2019-01-06T19:52:42.649Z,2.34
2019-01-06T20:01:45.585Z,2.30
2019-01-06T20:06:08.797Z,2.29
2019-01-06T20:10:32.030Z,2.29
2019-01-06T20:14:55.297Z,2.28
2019-01-06T20:19:18.583Z,2.28
2019-01-06T20:23:41.769Z,2.29
2019-01-06T20:28:04.955Z,2.26
2019-01-06T20:32:28.187Z,2.23
2019-01-06T20:36:51.364Z,2.21
2019-01-06T20:41:14.617Z,2.21
2019-01-06T20:45:39.216Z,2.21
2019-01-06T20:54:34.948Z,2.26
2019-01-06T20:58:58.137Z,2.26
2019-01-06T21:03:21.315Z,2.29
2019-01-06T21:07:44.479Z,2.26
2019-01-06T21:12:07.754Z,2.30
2019-01-06T21:16:30.950Z,2.32
2019-01-06T21:25:23.905Z,2.33
2019-01-06T21:30:08.171Z,2.29
2019-01-06T21:34:31.409Z,2.31
2019-01-06T21:38:54.554Z,2.32
2019-01-06T21:43:17.757Z,2.33
2019-01-06T21:47:40.981Z,2.29
2019-01-06T21:52:04.158Z,2.31
2019-01-06T22:00:59.667Z,2.20
2019-01-06T22:18:47.524Z,2.04
2019-01-06T22:27:40.214Z,1.95
2019-01-06T22:32:03.632Z,1.96
2019-01-06T22:36:26.806Z,1.94
2019-01-06T22:40:50.294Z,1.92
2019-01-06T22:49:40.798Z,1.90
2019-01-06T22:54:04.009Z,1.91
2019-01-06T22:58:27.211Z,1.95
2019-01-06T23:11:36.855Z,1.99
2019-01-06T23:16:03.341Z,2.00
2019-01-06T23:20:27.939Z,1.99
2019-01-06T23:24:51.291Z,2.00
2019-01-06T23:29:18.425Z,2.02
2019-01-06T23:47:13.668Z,2.03
2019-01-06T23:56:22.640Z,2.05
